sensor_id;sensor_type;location;lat;lon;timestamp;pressure;altitude;pressure_sealevel;temperature;humidity
49813;BME280;35706;52.100;5.056;2023-04-30T00:00:49;102308.41;;;13.11;67.89
49813;BME280;35706;52.100;5.056;2023-04-30T00:01:49;102319.34;;;13.18;67.82
49813;BME280;35706;52.100;5.056;2023-04-30T00:02:50;102317.66;;;13.17;67.68
49813;BME280;35706;52.100;5.056;2023-04-30T00:03:50;102309.84;;;13.15;67.43
49813;BME280;35706;52.100;5.056;2023-04-30T00:04:50;102312.50;;;13.27;67.17
49813;BME280;35706;52.100;5.056;2023-04-30T00:05:51;102311.66;;;13.15;67.32
49813;BME280;35706;52.100;5.056;2023-04-30T00:06:51;102316.44;;;13.10;67.90
49813;BME280;35706;52.100;5.056;2023-04-30T00:07:52;102308.31;;;13.24;67.92
49813;BME280;35706;52.100;5.056;2023-04-30T00:08:52;102310.78;;;13.03;68.24
49813;BME280;35706;52.100;5.056;2023-04-30T00:09:52;102317.34;;;12.97;68.54
49813;BME280;35706;52.100;5.056;2023-04-30T00:10:52;102318.06;;;12.88;68.98
49813;BME280;35706;52.100;5.056;2023-04-30T00:11:53;102312.31;;;12.94;68.80
49813;BME280;35706;52.100;5.056;2023-04-30T00:12:53;102319.59;;;12.79;69.83
49813;BME280;35706;52.100;5.056;2023-04-30T00:13:54;102310.38;;;12.85;69.23
49813;BME280;35706;52.100;5.056;2023-04-30T00:14:56;102308.97;;;12.92;69.19
49813;BME280;35706;52.100;5.056;2023-04-30T00:15:56;102315.78;;;12.83;68.91
49813;BME280;35706;52.100;5.056;2023-04-30T00:16:56;102310.53;;;12.95;68.63
49813;BME280;35706;52.100;5.056;2023-04-30T00:17:57;102308.41;;;13.00;68.58
49813;BME280;35706;52.100;5.056;2023-04-30T00:18:57;102314.72;;;12.97;68.45
49813;BME280;35706;52.100;5.056;2023-04-30T00:19:57;102306.34;;;13.03;68.67
49813;BME280;35706;52.100;5.056;2023-04-30T00:20:57;102311.88;;;13.12;68.10
49813;BME280;35706;52.100;5.056;2023-04-30T00:21:58;102308.03;;;12.93;68.79
49813;BME280;35706;52.100;5.056;2023-04-30T00:23:00;102310.94;;;12.77;69.39
49813;BME280;35706;52.100;5.056;2023-04-30T00:24:01;102310.59;;;12.82;69.23
49813;BME280;35706;52.100;5.056;2023-04-30T00:25:01;102309.94;;;12.91;69.10
49813;BME280;35706;52.100;5.056;2023-04-30T00:26:01;102310.53;;;12.95;69.23
49813;BME280;35706;52.100;5.056;2023-04-30T00:27:02;102307.94;;;13.06;68.93
49813;BME280;35706;52.100;5.056;2023-04-30T00:28:02;102314.03;;;12.95;68.72
49813;BME280;35706;52.100;5.056;2023-04-30T00:29:02;102312.56;;;12.91;69.06
49813;BME280;35706;52.100;5.056;2023-04-30T00:30:04;102311.88;;;13.00;69.18
49813;BME280;35706;52.100;5.056;2023-04-30T00:31:05;102315.84;;;13.06;69.30
49813;BME280;35706;52.100;5.056;2023-04-30T00:32:08;102310.94;;;13.13;68.69
49813;BME280;35706;52.100;5.056;2023-04-30T00:33:08;102315.97;;;13.04;68.54
49813;BME280;35706;52.100;5.056;2023-04-30T00:34:08;102317.63;;;13.06;68.73
49813;BME280;35706;52.100;5.056;2023-04-30T00:35:09;102326.09;;;12.87;69.26
49813;BME280;35706;52.100;5.056;2023-04-30T00:36:10;102316.41;;;12.98;69.33
49813;BME280;35706;52.100;5.056;2023-04-30T00:37:10;102323.16;;;13.02;69.17
49813;BME280;35706;52.100;5.056;2023-04-30T00:38:11;102318.59;;;13.04;68.66
49813;BME280;35706;52.100;5.056;2023-04-30T00:39:11;102326.22;;;12.85;69.24
49813;BME280;35706;52.100;5.056;2023-04-30T00:40:12;102322.25;;;12.91;68.96
49813;BME280;35706;52.100;5.056;2023-04-30T00:41:12;102327.09;;;12.97;68.85
49813;BME280;35706;52.100;5.056;2023-04-30T00:42:12;102326.28;;;13.08;68.37
49813;BME280;35706;52.100;5.056;2023-04-30T00:43:13;102333.09;;;12.99;68.99
49813;BME280;35706;52.100;5.056;2023-04-30T00:44:13;102325.03;;;12.89;69.17
49813;BME280;35706;52.100;5.056;2023-04-30T00:45:13;102325.69;;;12.80;69.29
49813;BME280;35706;52.100;5.056;2023-04-30T00:46:13;102331.34;;;12.87;69.29
49813;BME280;35706;52.100;5.056;2023-04-30T00:47:14;102335.53;;;12.78;69.85
49813;BME280;35706;52.100;5.056;2023-04-30T00:48:15;102332.44;;;12.84;69.45
49813;BME280;35706;52.100;5.056;2023-04-30T00:49:15;102337.63;;;12.86;69.11
49813;BME280;35706;52.100;5.056;2023-04-30T00:50:16;102333.34;;;12.96;68.95
49813;BME280;35706;52.100;5.056;2023-04-30T00:51:16;102345.88;;;12.81;69.52
49813;BME280;35706;52.100;5.056;2023-04-30T00:52:17;102336.19;;;12.93;69.40
49813;BME280;35706;52.100;5.056;2023-04-30T00:53:18;102342.66;;;12.89;69.18
49813;BME280;35706;52.100;5.056;2023-04-30T00:54:19;102332.59;;;12.94;68.91
49813;BME280;35706;52.100;5.056;2023-04-30T00:55:20;102339.56;;;12.95;69.03
49813;BME280;35706;52.100;5.056;2023-04-30T00:56:21;102334.50;;;12.92;69.10
49813;BME280;35706;52.100;5.056;2023-04-30T00:57:21;102333.91;;;12.88;69.18
49813;BME280;35706;52.100;5.056;2023-04-30T00:58:21;102337.00;;;12.58;70.08
49813;BME280;35706;52.100;5.056;2023-04-30T00:59:23;102333.13;;;12.75;70.17
49813;BME280;35706;52.100;5.056;2023-04-30T01:00:23;102344.47;;;12.64;70.17
49813;BME280;35706;52.100;5.056;2023-04-30T01:01:25;102343.91;;;12.72;70.35
49813;BME280;35706;52.100;5.056;2023-04-30T01:02:28;102346.78;;;12.69;70.00
49813;BME280;35706;52.100;5.056;2023-04-30T01:03:28;102350.22;;;12.21;71.70
49813;BME280;35706;52.100;5.056;2023-04-30T01:04:29;102340.69;;;12.31;71.56
49813;BME280;35706;52.100;5.056;2023-04-30T01:05:29;102350.22;;;12.21;71.85
49813;BME280;35706;52.100;5.056;2023-04-30T01:06:30;102344.75;;;12.24;72.04
49813;BME280;35706;52.100;5.056;2023-04-30T01:07:31;102342.50;;;12.31;72.02
49813;BME280;35706;52.100;5.056;2023-04-30T01:08:32;102343.59;;;12.15;72.19
49813;BME280;35706;52.100;5.056;2023-04-30T01:09:33;102344.31;;;12.30;72.04
49813;BME280;35706;52.100;5.056;2023-04-30T01:12:20;102349.63;;;12.66;70.99
49813;BME280;35706;52.100;5.056;2023-04-30T01:13:36;102351.69;;;12.25;71.93
49813;BME280;35706;52.100;5.056;2023-04-30T01:15:55;102348.47;;;12.09;72.41
49813;BME280;35706;52.100;5.056;2023-04-30T01:17:05;102344.78;;;12.11;72.10
49813;BME280;35706;52.100;5.056;2023-04-30T01:18:28;102342.94;;;12.25;71.97
49813;BME280;35706;52.100;5.056;2023-04-30T01:19:46;102338.41;;;12.27;72.01
49813;BME280;35706;52.100;5.056;2023-04-30T01:20:49;102338.69;;;12.35;71.85
49813;BME280;35706;52.100;5.056;2023-04-30T01:21:52;102341.63;;;12.43;71.38
49813;BME280;35706;52.100;5.056;2023-04-30T01:23:13;102344.00;;;12.46;71.17
49813;BME280;35706;52.100;5.056;2023-04-30T01:24:37;102343.28;;;12.44;71.29
49813;BME280;35706;52.100;5.056;2023-04-30T01:25:59;102340.59;;;12.33;71.77
49813;BME280;35706;52.100;5.056;2023-04-30T01:27:29;102339.63;;;12.34;71.44
49813;BME280;35706;52.100;5.056;2023-04-30T01:28:31;102337.72;;;12.36;71.42
49813;BME280;35706;52.100;5.056;2023-04-30T01:29:34;102338.97;;;12.43;71.27
49813;BME280;35706;52.100;5.056;2023-04-30T01:30:35;102332.91;;;12.30;71.42
49813;BME280;35706;52.100;5.056;2023-04-30T01:31:36;102335.31;;;12.33;71.40
49813;BME280;35706;52.100;5.056;2023-04-30T01:32:37;102338.25;;;12.41;71.40
49813;BME280;35706;52.100;5.056;2023-04-30T01:33:37;102338.78;;;12.33;71.44
49813;BME280;35706;52.100;5.056;2023-04-30T01:34:37;102330.16;;;12.31;71.77
49813;BME280;35706;52.100;5.056;2023-04-30T01:37:10;102336.34;;;12.43;71.33
49813;BME280;35706;52.100;5.056;2023-04-30T01:39:33;102339.47;;;12.48;71.18
49813;BME280;35706;52.100;5.056;2023-04-30T01:40:42;102341.00;;;12.39;71.21
49813;BME280;35706;52.100;5.056;2023-04-30T01:43:05;102342.63;;;12.16;71.80
49813;BME280;35706;52.100;5.056;2023-04-30T01:47:06;102342.41;;;12.32;71.87
49813;BME280;35706;52.100;5.056;2023-04-30T01:49:51;102339.91;;;12.18;71.77
49813;BME280;35706;52.100;5.056;2023-04-30T01:51:08;102340.25;;;12.13;72.36
49813;BME280;35706;52.100;5.056;2023-04-30T01:52:17;102335.75;;;12.27;71.87
49813;BME280;35706;52.100;5.056;2023-04-30T01:53:23;102338.22;;;12.17;72.47
49813;BME280;35706;52.100;5.056;2023-04-30T01:54:41;102343.47;;;12.17;72.38
49813;BME280;35706;52.100;5.056;2023-04-30T01:56:00;102335.31;;;12.33;71.80
49813;BME280;35706;52.100;5.056;2023-04-30T01:57:06;102344.22;;;12.19;71.82
49813;BME280;35706;52.100;5.056;2023-04-30T01:58:11;102344.47;;;12.03;72.52
49813;BME280;35706;52.100;5.056;2023-04-30T01:59:13;102346.53;;;12.24;72.23
49813;BME280;35706;52.100;5.056;2023-04-30T02:00:14;102351.69;;;12.25;71.78
49813;BME280;35706;52.100;5.056;2023-04-30T02:01:30;102336.84;;;12.24;71.53
49813;BME280;35706;52.100;5.056;2023-04-30T02:02:31;102347.88;;;12.29;71.67
49813;BME280;35706;52.100;5.056;2023-04-30T02:03:31;102346.75;;;12.20;71.55
49813;BME280;35706;52.100;5.056;2023-04-30T02:04:32;102339.81;;;12.19;71.73
49813;BME280;35706;52.100;5.056;2023-04-30T02:05:32;102345.25;;;11.92;72.73
49813;BME280;35706;52.100;5.056;2023-04-30T02:06:32;102349.66;;;12.05;72.62
49813;BME280;35706;52.100;5.056;2023-04-30T02:07:39;102346.69;;;12.09;72.17
49813;BME280;35706;52.100;5.056;2023-04-30T02:08:40;102350.88;;;12.12;72.47
49813;BME280;35706;52.100;5.056;2023-04-30T02:09:40;102356.38;;;12.09;72.38
49813;BME280;35706;52.100;5.056;2023-04-30T02:10:41;102352.69;;;12.11;72.75
49813;BME280;35706;52.100;5.056;2023-04-30T02:11:41;102340.75;;;12.18;72.33
49813;BME280;35706;52.100;5.056;2023-04-30T02:12:41;102352.13;;;12.19;72.02
49813;BME280;35706;52.100;5.056;2023-04-30T02:13:42;102361.63;;;12.21;72.46
49813;BME280;35706;52.100;5.056;2023-04-30T02:14:42;102353.63;;;11.85;72.97
49813;BME280;35706;52.100;5.056;2023-04-30T02:15:42;102354.22;;;11.90;73.29
49813;BME280;35706;52.100;5.056;2023-04-30T02:16:42;102355.69;;;11.94;73.22
49813;BME280;35706;52.100;5.056;2023-04-30T02:17:43;102354.72;;;11.95;73.10
49813;BME280;35706;52.100;5.056;2023-04-30T02:18:44;102360.41;;;11.89;73.22
49813;BME280;35706;52.100;5.056;2023-04-30T02:19:44;102357.84;;;11.74;73.48
49813;BME280;35706;52.100;5.056;2023-04-30T02:20:45;102353.13;;;11.79;73.50
49813;BME280;35706;52.100;5.056;2023-04-30T02:21:45;102357.44;;;11.80;73.60
49813;BME280;35706;52.100;5.056;2023-04-30T02:22:45;102362.38;;;11.85;73.48
49813;BME280;35706;52.100;5.056;2023-04-30T02:23:46;102355.13;;;11.89;73.26
49813;BME280;35706;52.100;5.056;2023-04-30T02:24:46;102353.34;;;11.89;73.12
49813;BME280;35706;52.100;5.056;2023-04-30T02:25:46;102358.09;;;11.97;73.04
49813;BME280;35706;52.100;5.056;2023-04-30T02:26:47;102348.03;;;12.02;72.87
49813;BME280;35706;52.100;5.056;2023-04-30T02:27:47;102353.16;;;11.92;73.08
49813;BME280;35706;52.100;5.056;2023-04-30T02:28:49;102347.78;;;11.94;72.88
49813;BME280;35706;52.100;5.056;2023-04-30T02:29:50;102351.44;;;11.91;73.36
49813;BME280;35706;52.100;5.056;2023-04-30T02:30:51;102343.84;;;11.87;73.02
49813;BME280;35706;52.100;5.056;2023-04-30T02:31:51;102356.38;;;11.57;73.89
49813;BME280;35706;52.100;5.056;2023-04-30T02:32:51;102338.81;;;11.71;74.18
49813;BME280;35706;52.100;5.056;2023-04-30T02:33:51;102345.75;;;11.72;73.67
49813;BME280;35706;52.100;5.056;2023-04-30T02:34:52;102347.31;;;11.74;73.77
49813;BME280;35706;52.100;5.056;2023-04-30T02:35:52;102345.66;;;11.73;73.62
49813;BME280;35706;52.100;5.056;2023-04-30T02:36:54;102343.66;;;11.77;73.15
49813;BME280;35706;52.100;5.056;2023-04-30T02:37:54;102338.91;;;11.69;73.35
49813;BME280;35706;52.100;5.056;2023-04-30T02:38:54;102335.75;;;11.77;73.24
49813;BME280;35706;52.100;5.056;2023-04-30T02:39:55;102335.31;;;11.70;73.47
49813;BME280;35706;52.100;5.056;2023-04-30T02:40:56;102339.53;;;11.73;73.23
49813;BME280;35706;52.100;5.056;2023-04-30T02:41:56;102334.59;;;11.81;72.77
49813;BME280;35706;52.100;5.056;2023-04-30T02:42:56;102327.13;;;11.75;73.31
49813;BME280;35706;52.100;5.056;2023-04-30T02:43:57;102335.84;;;11.75;73.25
49813;BME280;35706;52.100;5.056;2023-04-30T02:44:57;102327.63;;;11.67;73.55
49813;BME280;35706;52.100;5.056;2023-04-30T02:45:57;102332.25;;;11.76;73.07
49813;BME280;35706;52.100;5.056;2023-04-30T02:46:58;102327.53;;;11.81;72.67
49813;BME280;35706;52.100;5.056;2023-04-30T02:47:58;102333.22;;;11.88;72.61
49813;BME280;35706;52.100;5.056;2023-04-30T02:48:59;102332.66;;;11.83;72.79
49813;BME280;35706;52.100;5.056;2023-04-30T02:49:59;102324.66;;;11.85;72.82
49813;BME280;35706;52.100;5.056;2023-04-30T02:50:59;102328.78;;;11.76;72.90
49813;BME280;35706;52.100;5.056;2023-04-30T02:51:59;102331.31;;;11.77;72.84
49813;BME280;35706;52.100;5.056;2023-04-30T02:53:00;102329.72;;;11.88;72.64
49813;BME280;35706;52.100;5.056;2023-04-30T02:54:00;102329.63;;;11.76;73.09
49813;BME280;35706;52.100;5.056;2023-04-30T02:55:01;102333.00;;;11.78;72.92
49813;BME280;35706;52.100;5.056;2023-04-30T02:56:01;102331.75;;;11.71;73.19
49813;BME280;35706;52.100;5.056;2023-04-30T02:57:02;102332.81;;;11.69;73.09
49813;BME280;35706;52.100;5.056;2023-04-30T02:58:02;102328.47;;;11.68;73.11
49813;BME280;35706;52.100;5.056;2023-04-30T02:59:03;102333.84;;;11.66;73.01
49813;BME280;35706;52.100;5.056;2023-04-30T03:00:03;102331.94;;;11.68;73.33
49813;BME280;35706;52.100;5.056;2023-04-30T03:01:04;102333.97;;;11.65;73.20
49813;BME280;35706;52.100;5.056;2023-04-30T03:02:05;102332.16;;;11.65;73.12
49813;BME280;35706;52.100;5.056;2023-04-30T03:03:05;102331.44;;;11.63;73.43
49813;BME280;35706;52.100;5.056;2023-04-30T03:04:05;102335.03;;;11.62;73.39
49813;BME280;35706;52.100;5.056;2023-04-30T03:05:06;102333.53;;;11.71;73.32
49813;BME280;35706;52.100;5.056;2023-04-30T03:06:06;102330.06;;;11.57;73.69
49813;BME280;35706;52.100;5.056;2023-04-30T03:07:06;102331.13;;;11.55;73.53
49813;BME280;35706;52.100;5.056;2023-04-30T03:08:07;102330.06;;;11.57;73.74
49813;BME280;35706;52.100;5.056;2023-04-30T03:09:07;102336.47;;;11.66;73.32
49813;BME280;35706;52.100;5.056;2023-04-30T03:10:08;102332.69;;;11.57;73.14
49813;BME280;35706;52.100;5.056;2023-04-30T03:11:08;102334.72;;;11.54;73.28
49813;BME280;35706;52.100;5.056;2023-04-30T03:12:08;102328.81;;;11.63;73.00
49813;BME280;35706;52.100;5.056;2023-04-30T03:13:09;102330.06;;;11.57;72.86
49813;BME280;35706;52.100;5.056;2023-04-30T03:14:09;102335.31;;;11.57;73.07
49813;BME280;35706;52.100;5.056;2023-04-30T03:15:10;102329.97;;;11.46;73.27
49813;BME280;35706;52.100;5.056;2023-04-30T03:16:10;102337.03;;;11.46;73.14
49813;BME280;35706;52.100;5.056;2023-04-30T03:17:10;102335.75;;;11.51;73.42
49813;BME280;35706;52.100;5.056;2023-04-30T03:18:11;102338.28;;;11.53;73.21
49813;BME280;35706;52.100;5.056;2023-04-30T03:19:11;102330.28;;;11.41;73.36
49813;BME280;35706;52.100;5.056;2023-04-30T03:20:11;102344.38;;;11.53;73.35
49813;BME280;35706;52.100;5.056;2023-04-30T03:21:13;102339.84;;;11.43;73.60
49813;BME280;35706;52.100;5.056;2023-04-30T03:22:13;102334.81;;;11.39;74.17
49813;BME280;35706;52.100;5.056;2023-04-30T03:23:14;102339.25;;;11.52;73.98
49813;BME280;35706;52.100;5.056;2023-04-30T03:24:14;102340.59;;;11.45;73.88
49813;BME280;35706;52.100;5.056;2023-04-30T03:25:14;102336.38;;;11.42;73.86
49813;BME280;35706;52.100;5.056;2023-04-30T03:26:15;102335.13;;;11.48;73.58
49813;BME280;35706;52.100;5.056;2023-04-30T03:27:15;102334.16;;;11.61;73.13
49813;BME280;35706;52.100;5.056;2023-04-30T03:28:16;102335.56;;;11.54;73.44
49813;BME280;35706;52.100;5.056;2023-04-30T03:29:16;102335.00;;;11.36;73.81
49813;BME280;35706;52.100;5.056;2023-04-30T03:30:16;102326.91;;;11.39;73.59
49813;BME280;35706;52.100;5.056;2023-04-30T03:31:17;102335.13;;;11.35;74.08
49813;BME280;35706;52.100;5.056;2023-04-30T03:32:17;102336.81;;;11.49;73.51
49813;BME280;35706;52.100;5.056;2023-04-30T03:33:18;102326.91;;;11.52;73.27
49813;BME280;35706;52.100;5.056;2023-04-30T03:34:18;102336.28;;;11.44;73.39
49813;BME280;35706;52.100;5.056;2023-04-30T03:35:18;102331.75;;;11.58;73.26
49813;BME280;35706;52.100;5.056;2023-04-30T03:36:18;102330.19;;;11.56;73.09
49813;BME280;35706;52.100;5.056;2023-04-30T03:37:19;102325.34;;;11.50;73.18
49813;BME280;35706;52.100;5.056;2023-04-30T03:38:19;102322.78;;;11.61;73.14
49813;BME280;35706;52.100;5.056;2023-04-30T03:39:19;102323.53;;;11.50;73.03
49813;BME280;35706;52.100;5.056;2023-04-30T03:40:20;102325.53;;;11.59;73.14
49813;BME280;35706;52.100;5.056;2023-04-30T03:41:20;102325.84;;;11.55;72.95
49813;BME280;35706;52.100;5.056;2023-04-30T03:42:20;102326.50;;;11.46;73.07
49813;BME280;35706;52.100;5.056;2023-04-30T03:43:21;102326.06;;;11.39;73.13
49813;BME280;35706;52.100;5.056;2023-04-30T03:44:21;102326.91;;;11.39;73.47
49813;BME280;35706;52.100;5.056;2023-04-30T03:45:22;102325.84;;;11.42;73.11
49813;BME280;35706;52.100;5.056;2023-04-30T03:46:22;102318.78;;;11.43;72.96
49813;BME280;35706;52.100;5.056;2023-04-30T03:47:23;102322.56;;;11.51;72.92
49813;BME280;35706;52.100;5.056;2023-04-30T03:48:23;102323.97;;;11.31;73.37
49813;BME280;35706;52.100;5.056;2023-04-30T03:49:23;102320.59;;;11.42;73.24
49813;BME280;35706;52.100;5.056;2023-04-30T03:50:24;102322.69;;;11.50;72.72
49813;BME280;35706;52.100;5.056;2023-04-30T03:51:25;102324.06;;;11.30;73.44
49813;BME280;35706;52.100;5.056;2023-04-30T03:52:27;102318.38;;;11.36;73.31
49813;BME280;35706;52.100;5.056;2023-04-30T03:53:27;102325.22;;;11.26;73.72
49813;BME280;35706;52.100;5.056;2023-04-30T03:54:28;102322.25;;;11.17;73.95
49813;BME280;35706;52.100;5.056;2023-04-30T03:55:28;102326.06;;;11.26;74.16
49813;BME280;35706;52.100;5.056;2023-04-30T03:56:29;102315.41;;;11.40;73.40
49813;BME280;35706;52.100;5.056;2023-04-30T03:57:29;102324.47;;;11.36;73.06
49813;BME280;35706;52.100;5.056;2023-04-30T03:58:29;102321.00;;;11.36;73.41
49813;BME280;35706;52.100;5.056;2023-04-30T03:59:30;102320.69;;;11.40;73.39
49813;BME280;35706;52.100;5.056;2023-04-30T04:00:31;102315.53;;;11.52;72.80
49813;BME280;35706;52.100;5.056;2023-04-30T04:01:31;102311.44;;;11.48;72.81
49813;BME280;35706;52.100;5.056;2023-04-30T04:02:32;102312.91;;;11.39;72.96
49813;BME280;35706;52.100;5.056;2023-04-30T04:03:33;102318.28;;;11.37;73.05
49813;BME280;35706;52.100;5.056;2023-04-30T04:04:34;102316.56;;;11.36;73.18
49813;BME280;35706;52.100;5.056;2023-04-30T04:05:34;102312.47;;;11.32;73.32
49813;BME280;35706;52.100;5.056;2023-04-30T04:06:34;102319.22;;;11.36;73.44
49813;BME280;35706;52.100;5.056;2023-04-30T04:07:35;102315.75;;;11.36;73.15
49813;BME280;35706;52.100;5.056;2023-04-30T04:08:35;102317.03;;;11.30;72.95
49813;BME280;35706;52.100;5.056;2023-04-30T04:09:36;102315.97;;;11.33;73.28
49813;BME280;35706;52.100;5.056;2023-04-30T04:10:37;102315.97;;;11.33;73.22
49813;BME280;35706;52.100;5.056;2023-04-30T04:11:38;102320.59;;;11.29;73.14
49813;BME280;35706;52.100;5.056;2023-04-30T04:12:38;102318.78;;;11.30;73.05
49813;BME280;35706;52.100;5.056;2023-04-30T04:13:39;102312.03;;;11.13;73.99
49813;BME280;35706;52.100;5.056;2023-04-30T04:14:40;102313.00;;;11.12;73.87
49813;BME280;35706;52.100;5.056;2023-04-30T04:15:40;102322.25;;;11.17;73.87
49813;BME280;35706;52.100;5.056;2023-04-30T04:16:41;102324.47;;;11.24;73.72
49813;BME280;35706;52.100;5.056;2023-04-30T04:17:41;102319.75;;;11.16;74.08
49813;BME280;35706;52.100;5.056;2023-04-30T04:18:41;102318.16;;;11.13;74.12
49813;BME280;35706;52.100;5.056;2023-04-30T04:19:42;102326.91;;;11.14;73.92
49813;BME280;35706;52.100;5.056;2023-04-30T04:20:42;102327.63;;;11.16;73.94
49813;BME280;35706;52.100;5.056;2023-04-30T04:21:42;102325.44;;;11.23;73.72
49813;BME280;35706;52.100;5.056;2023-04-30T04:22:43;102325.00;;;11.16;73.66
49813;BME280;35706;52.100;5.056;2023-04-30T04:23:43;102325.41;;;11.10;74.05
49813;BME280;35706;52.100;5.056;2023-04-30T04:24:43;102322.88;;;11.08;74.76
49813;BME280;35706;52.100;5.056;2023-04-30T04:25:44;102326.00;;;11.00;74.84
49813;BME280;35706;52.100;5.056;2023-04-30T04:26:46;102320.75;;;11.00;74.85
49813;BME280;35706;52.100;5.056;2023-04-30T04:27:46;102327.38;;;10.93;75.07
49813;BME280;35706;52.100;5.056;2023-04-30T04:28:46;102326.00;;;10.88;75.45
49813;BME280;35706;52.100;5.056;2023-04-30T04:29:47;102325.91;;;11.02;75.52
49813;BME280;35706;52.100;5.056;2023-04-30T04:30:47;102321.81;;;11.11;74.70
49813;BME280;35706;52.100;5.056;2023-04-30T04:31:48;102329.31;;;11.17;74.42
49813;BME280;35706;52.100;5.056;2023-04-30T04:32:50;102327.00;;;11.12;74.23
49813;BME280;35706;52.100;5.056;2023-04-30T04:33:53;102322.22;;;11.05;nan
49813;BME280;35706;52.100;5.056;2023-04-30T04:34:57;102325.41;;;11.10;74.42
49813;BME280;35706;52.100;5.056;2023-04-30T04:35:58;102324.28;;;11.14;74.32
49813;BME280;35706;52.100;5.056;2023-04-30T04:36:58;102321.00;;;11.10;74.14
49813;BME280;35706;52.100;5.056;2023-04-30T04:37:59;102326.38;;;11.21;74.05
49813;BME280;35706;52.100;5.056;2023-04-30T04:39:00;102326.69;;;11.17;74.07
49813;BME280;35706;52.100;5.056;2023-04-30T04:40:01;102318.78;;;11.17;73.96
49813;BME280;35706;52.100;5.056;2023-04-30T04:41:01;102321.00;;;11.10;74.03
49813;BME280;35706;52.100;5.056;2023-04-30T04:42:02;102322.69;;;11.24;73.47
49813;BME280;35706;52.100;5.056;2023-04-30T04:43:02;102316.72;;;11.35;73.07
49813;BME280;35706;52.100;5.056;2023-04-30T04:44:03;102317.44;;;11.24;73.41
49813;BME280;35706;52.100;5.056;2023-04-30T04:45:05;102320.59;;;11.42;72.67
49813;BME280;35706;52.100;5.056;2023-04-30T04:46:07;102321.56;;;11.41;72.79
49813;BME280;35706;52.100;5.056;2023-04-30T04:47:08;102324.78;;;11.32;73.17
49813;BME280;35706;52.100;5.056;2023-04-30T04:48:09;102322.69;;;11.24;73.47
49813;BME280;35706;52.100;5.056;2023-04-30T04:49:09;102313.66;;;11.28;73.36
49813;BME280;35706;52.100;5.056;2023-04-30T04:50:10;102316.38;;;11.14;73.99
49813;BME280;35706;52.100;5.056;2023-04-30T04:51:10;102310.56;;;11.21;73.75
49813;BME280;35706;52.100;5.056;2023-04-30T04:52:10;102315.22;;;11.18;73.92
49813;BME280;35706;52.100;5.056;2023-04-30T04:53:11;102309.63;;;11.23;73.90
49813;BME280;35706;52.100;5.056;2023-04-30T04:54:12;102313.41;;;11.06;74.45
49813;BME280;35706;52.100;5.056;2023-04-30T04:55:12;102312.03;;;11.13;73.86
49813;BME280;35706;52.100;5.056;2023-04-30T04:56:13;102315.00;;;11.21;74.15
49813;BME280;35706;52.100;5.056;2023-04-30T04:57:13;102316.56;;;11.24;73.99
49813;BME280;35706;52.100;5.056;2023-04-30T04:58:13;102318.78;;;11.17;74.22
49813;BME280;35706;52.100;5.056;2023-04-30T04:59:15;102310.78;;;11.31;73.86
49813;BME280;35706;52.100;5.056;2023-04-30T05:00:16;102319.00;;;11.27;73.72
49813;BME280;35706;52.100;5.056;2023-04-30T05:01:17;102317.94;;;11.16;74.20
49813;BME280;35706;52.100;5.056;2023-04-30T05:02:18;102312.59;;;11.31;73.28
49813;BME280;35706;52.100;5.056;2023-04-30T05:03:18;102319.94;;;11.26;73.63
49813;BME280;35706;52.100;5.056;2023-04-30T05:04:19;102318.59;;;11.20;73.85
49813;BME280;35706;52.100;5.056;2023-04-30T05:05:20;102324.38;;;11.25;73.71
49813;BME280;35706;52.100;5.056;2023-04-30T05:06:20;102315.84;;;11.21;73.64
49813;BME280;35706;52.100;5.056;2023-04-30T05:07:21;102320.59;;;11.29;73.24
49813;BME280;35706;52.100;5.056;2023-04-30T05:08:21;102320.16;;;11.23;73.27
49813;BME280;35706;52.100;5.056;2023-04-30T05:09:21;102321.00;;;11.10;74.20
49813;BME280;35706;52.100;5.056;2023-04-30T05:10:22;102325.19;;;11.13;74.22
49813;BME280;35706;52.100;5.056;2023-04-30T05:11:22;102326.16;;;11.25;74.35
49813;BME280;35706;52.100;5.056;2023-04-30T05:12:22;102323.53;;;11.25;73.68
49813;BME280;35706;52.100;5.056;2023-04-30T05:13:23;102323.88;;;11.33;73.59
49813;BME280;35706;52.100;5.056;2023-04-30T05:14:23;102327.50;;;11.17;73.98
49813;BME280;35706;52.100;5.056;2023-04-30T05:15:23;102331.03;;;11.31;73.44
49813;BME280;35706;52.100;5.056;2023-04-30T05:16:24;102330.69;;;11.23;73.84
49813;BME280;35706;52.100;5.056;2023-04-30T05:17:25;102330.28;;;11.41;72.92
49813;BME280;35706;52.100;5.056;2023-04-30T05:18:25;102328.06;;;11.35;73.56
49813;BME280;35706;52.100;5.056;2023-04-30T05:19:26;102334.81;;;11.27;73.96
49813;BME280;35706;52.100;5.056;2023-04-30T05:20:26;102330.78;;;11.21;73.98
49813;BME280;35706;52.100;5.056;2023-04-30T05:21:26;102336.25;;;11.05;74.47
49813;BME280;35706;52.100;5.056;2023-04-30T05:22:28;102331.50;;;11.10;74.29
49813;BME280;35706;52.100;5.056;2023-04-30T05:23:29;102339.31;;;11.12;74.50
49813;BME280;35706;52.100;5.056;2023-04-30T05:24:29;102338.91;;;11.18;73.67
49813;BME280;35706;52.100;5.056;2023-04-30T05:25:29;102337.63;;;11.24;73.66
49813;BME280;35706;52.100;5.056;2023-04-30T05:26:30;102328.06;;;11.10;74.32
49813;BME280;35706;52.100;5.056;2023-04-30T05:27:30;102336.03;;;11.08;73.69
49813;BME280;35706;52.100;5.056;2023-04-30T05:28:30;102332.69;;;11.32;72.74
49813;BME280;35706;52.100;5.056;2023-04-30T05:29:30;102336.28;;;11.31;72.84
49813;BME280;35706;52.100;5.056;2023-04-30T05:30:31;102336.47;;;11.15;73.33
49813;BME280;35706;52.100;5.056;2023-04-30T05:31:31;102333.50;;;11.19;73.01
49813;BME280;35706;52.100;5.056;2023-04-30T05:32:31;102328.56;;;11.28;72.57
49813;BME280;35706;52.100;5.056;2023-04-30T05:33:32;102339.25;;;11.52;71.72